createdAt,value
2019-02-16T00:00:09.625Z,7.90
2019-02-16T00:05:06.251Z,7.80
2019-02-16T00:10:11.253Z,7.80
2019-02-16T00:15:05.452Z,7.80
2019-02-16T00:20:07.919Z,7.80
2019-02-16T00:25:01.635Z,7.70
2019-02-16T00:29:54.601Z,7.70
2019-02-16T00:34:51.892Z,7.60
2019-02-16T00:39:45.400Z,7.50
2019-02-16T00:44:43.373Z,7.40
2019-02-16T00:49:36.582Z,7.30
2019-02-16T00:54:29.912Z,7.20
2019-02-16T00:59:22.777Z,7.20
2019-02-16T01:04:15.666Z,7.10
2019-02-16T01:09:10.903Z,7.20
2019-02-16T01:14:03.949Z,7.30
2019-02-16T01:19:01.488Z,7.30
2019-02-16T01:23:54.420Z,7.20
2019-02-16T01:28:47.310Z,7.10
2019-02-16T01:33:40.321Z,7.30
2019-02-16T01:38:34.201Z,7.10
2019-02-16T01:43:27.290Z,7.00
2019-02-16T01:48:22.826Z,6.80
2019-02-16T01:53:16.125Z,6.80
2019-02-16T01:58:14.262Z,6.70
2019-02-16T02:03:12.088Z,6.70
2019-02-16T02:08:07.867Z,6.70
2019-02-16T02:13:01.711Z,6.70
2019-02-16T02:17:54.759Z,6.60
2019-02-16T02:22:51.204Z,6.50
2019-02-16T02:27:47.559Z,6.40
2019-02-16T02:32:40.522Z,6.50
2019-02-16T02:37:53.174Z,6.50
2019-02-16T02:42:47.091Z,6.50
2019-02-16T02:47:41.711Z,6.40
2019-02-16T02:52:34.698Z,6.30
2019-02-16T02:57:35.470Z,6.30
2019-02-16T03:02:30.295Z,6.30
2019-02-16T03:07:30.490Z,6.30
2019-02-16T03:12:23.509Z,6.20
2019-02-16T03:17:16.531Z,6.20
2019-02-16T03:22:09.451Z,6.10
2019-02-16T03:27:46.338Z,6.20
2019-02-16T03:33:29.380Z,6.10
2019-02-16T03:39:07.253Z,6.00
2019-02-16T03:44:00.225Z,5.90
2019-02-16T03:48:53.340Z,5.80
2019-02-16T03:53:46.366Z,5.80
2019-02-16T03:58:39.329Z,5.80
2019-02-16T04:03:32.336Z,5.80
2019-02-16T04:08:25.269Z,5.80
2019-02-16T04:13:18.270Z,5.70
2019-02-16T04:18:11.143Z,5.70
2019-02-16T04:23:04.098Z,5.60
2019-02-16T04:27:56.965Z,5.50
2019-02-16T04:32:49.831Z,5.40
2019-02-16T04:37:42.650Z,5.30
2019-02-16T04:42:35.619Z,5.30
2019-02-16T04:47:28.502Z,5.20
2019-02-16T04:52:21.369Z,5.20
2019-02-16T04:57:14.190Z,5.10
2019-02-16T05:02:07.106Z,5.20
2019-02-16T05:06:59.960Z,5.20
2019-02-16T05:11:52.843Z,5.10
2019-02-16T05:16:45.696Z,5.10
2019-02-16T05:21:38.549Z,5.00
2019-02-16T05:26:31.394Z,5.00
2019-02-16T05:31:24.295Z,5.00
2019-02-16T05:36:18.260Z,5.00
2019-02-16T05:41:11.157Z,5.00
2019-02-16T05:46:04.031Z,5.00
2019-02-16T05:50:56.899Z,5.00
2019-02-16T05:55:49.724Z,5.10
2019-02-16T06:00:42.574Z,5.10
2019-02-16T06:05:35.517Z,5.00
2019-02-16T06:10:28.436Z,4.90
2019-02-16T06:15:21.349Z,4.90
2019-02-16T06:20:14.213Z,4.80
2019-02-16T06:25:07.078Z,4.70
2019-02-16T06:30:00.039Z,4.70
2019-02-16T06:34:59.792Z,4.80
2019-02-16T06:39:53.087Z,4.80
2019-02-16T06:44:46.015Z,4.70
2019-02-16T06:49:38.839Z,4.70
2019-02-16T06:54:31.716Z,4.60
2019-02-16T06:59:24.627Z,4.70
2019-02-16T07:04:17.487Z,4.70
2019-02-16T07:09:10.291Z,4.80
2019-02-16T07:14:04.305Z,4.80
2019-02-16T07:19:01.461Z,4.90
2019-02-16T07:23:55.376Z,4.90
2019-02-16T07:28:48.210Z,5.00
2019-02-16T07:33:42.183Z,5.10
2019-02-16T07:38:35.059Z,5.30
2019-02-16T07:43:59.788Z,6.40
2019-02-16T07:49:18.594Z,7.90
2019-02-16T07:54:31.073Z,8.70
2019-02-16T07:59:43.507Z,9.00
2019-02-16T08:05:04.848Z,9.40
2019-02-16T08:10:09.595Z,9.90
2019-02-16T08:15:37.196Z,10.00
2019-02-16T08:20:44.258Z,10.20
2019-02-16T08:25:56.503Z,10.80
2019-02-16T08:31:24.086Z,11.10
2019-02-16T08:36:37.393Z,11.10
2019-02-16T08:41:48.917Z,11.30
2019-02-16T08:47:01.361Z,11.80
2019-02-16T08:52:13.883Z,11.50
2019-02-16T08:57:33.538Z,11.30
2019-02-16T09:02:35.258Z,11.30
2019-02-16T09:07:45.195Z,11.70
2019-02-16T09:12:46.063Z,11.40
2019-02-16T09:18:03.279Z,11.90
2019-02-16T09:23:13.764Z,11.90
2019-02-16T09:28:32.224Z,11.50
2019-02-16T09:33:44.683Z,12.00
2019-02-16T09:39:12.650Z,11.90
2019-02-16T09:44:29.868Z,12.30
2019-02-16T09:49:42.317Z,12.10
2019-02-16T09:54:50.831Z,11.80
2019-02-16T09:59:55.563Z,11.70
2019-02-16T10:05:17.708Z,12.30
2019-02-16T10:10:22.065Z,12.80
2019-02-16T10:15:36.110Z,12.80
2019-02-16T10:20:48.564Z,13.00
2019-02-16T10:25:51.639Z,12.50
2019-02-16T10:30:52.687Z,12.40
2019-02-16T10:35:52.024Z,12.50
2019-02-16T10:41:19.387Z,12.40
2019-02-16T10:46:30.742Z,12.50
2019-02-16T10:51:31.441Z,12.80
2019-02-16T10:56:47.747Z,12.80
2019-02-16T11:02:10.370Z,12.90
2019-02-16T11:07:26.519Z,13.00
2019-02-16T11:12:34.661Z,13.20
2019-02-16T11:17:38.889Z,13.50
2019-02-16T11:22:45.792Z,13.60
2019-02-16T11:27:56.761Z,13.50
2019-02-16T11:33:18.497Z,13.50
2019-02-16T11:38:23.348Z,13.50
2019-02-16T11:43:42.067Z,13.60
2019-02-16T11:48:44.422Z,13.80
2019-02-16T11:54:05.709Z,14.10
2019-02-16T11:59:16.957Z,14.10
2019-02-16T12:04:32.448Z,14.40
2019-02-16T12:09:43.836Z,14.80
2019-02-16T12:15:05.343Z,14.60
2019-02-16T12:20:15.970Z,14.80
2019-02-16T12:25:40.989Z,15.00
2019-02-16T12:30:48.082Z,15.20
2019-02-16T12:35:51.596Z,15.40
2019-02-16T12:41:09.992Z,15.40
2019-02-16T12:46:10.479Z,15.40
2019-02-16T12:51:38.239Z,15.50
2019-02-16T12:57:02.906Z,15.70
2019-02-16T13:02:16.158Z,15.60
2019-02-16T13:07:27.026Z,15.80
2019-02-16T13:12:48.786Z,16.00
2019-02-16T13:18:01.312Z,16.00
2019-02-16T13:23:02.024Z,16.20
2019-02-16T13:28:13.149Z,16.30
2019-02-16T13:33:24.542Z,16.20
2019-02-16T13:38:26.837Z,16.20
2019-02-16T13:43:41.783Z,16.40
2019-02-16T13:48:42.446Z,16.50
2019-02-16T13:53:54.759Z,16.70
2019-02-16T13:59:02.258Z,16.80
2019-02-16T14:04:12.024Z,16.60
2019-02-16T14:09:37.146Z,16.50
2019-02-16T14:14:45.069Z,16.70
2019-02-16T14:19:37.958Z,16.60
2019-02-16T14:24:42.967Z,16.50
2019-02-16T14:29:35.825Z,16.60
2019-02-16T14:34:28.684Z,16.60
2019-02-16T14:39:29.043Z,16.30
2019-02-16T14:44:23.716Z,16.20
2019-02-16T14:49:16.606Z,16.10
2019-02-16T14:54:09.821Z,16.20
2019-02-16T14:59:02.664Z,16.20
2019-02-16T15:03:55.594Z,16.10
2019-02-16T15:08:48.576Z,16.00
2019-02-16T15:13:41.454Z,15.90
2019-02-16T15:18:34.300Z,15.90
2019-02-16T15:23:27.148Z,15.80
2019-02-16T15:28:20.039Z,15.70
2019-02-16T15:33:14.243Z,15.60
2019-02-16T15:38:07.130Z,15.50
2019-02-16T15:43:00.015Z,15.40
2019-02-16T15:47:52.873Z,15.30
2019-02-16T15:52:45.757Z,15.20
2019-02-16T15:57:38.592Z,15.20
2019-02-16T16:02:31.479Z,15.20
2019-02-16T16:07:24.333Z,15.10
2019-02-16T16:12:45.784Z,14.90
2019-02-16T16:18:07.681Z,14.80
2019-02-16T16:23:17.906Z,14.50
2019-02-16T16:28:39.371Z,14.20
2019-02-16T16:33:43.949Z,14.00
2019-02-16T16:38:55.157Z,13.80
2019-02-16T16:43:59.007Z,13.50
2019-02-16T16:49:20.502Z,13.30
2019-02-16T16:54:34.787Z,13.00
2019-02-16T16:59:47.437Z,12.80
2019-02-16T17:04:59.901Z,12.60
2019-02-16T17:10:21.196Z,12.40
2019-02-16T17:15:36.845Z,12.30
2019-02-16T17:20:39.991Z,12.10
2019-02-16T17:26:01.263Z,12.10
2019-02-16T17:31:10.128Z,12.00
2019-02-16T17:36:23.797Z,11.80
2019-02-16T17:41:34.828Z,11.60
2019-02-16T17:46:46.172Z,11.30
2019-02-16T17:52:14.105Z,11.20
2019-02-16T17:57:29.323Z,11.20
2019-02-16T18:02:39.230Z,11.00
2019-02-16T18:07:51.763Z,10.70
2019-02-16T18:13:22.437Z,10.50
2019-02-16T18:18:24.772Z,10.30
2019-02-16T18:23:31.992Z,10.10
2019-02-16T18:28:57.066Z,9.90
2019-02-16T18:34:08.810Z,9.70
2019-02-16T18:39:17.986Z,9.80
2019-02-16T18:44:39.544Z,9.60
2019-02-16T18:50:07.160Z,9.50
2019-02-16T18:55:10.880Z,9.30
2019-02-16T19:00:10.335Z,9.30
2019-02-16T19:05:17.452Z,9.10
2019-02-16T19:10:25.870Z,9.10
2019-02-16T19:15:38.555Z,9.10
2019-02-16T19:20:48.278Z,9.00
2019-02-16T19:26:03.781Z,8.90
2019-02-16T19:31:16.251Z,8.80
2019-02-16T19:36:18.539Z,8.80
2019-02-16T19:41:27.394Z,8.80
2019-02-16T19:46:43.723Z,8.90
2019-02-16T19:51:47.514Z,9.00
2019-02-16T19:56:53.777Z,9.10
2019-02-16T20:02:01.593Z,9.10
2019-02-16T20:07:12.854Z,9.10
2019-02-16T20:12:12.932Z,9.10
2019-02-16T20:17:29.556Z,8.90
2019-02-16T20:22:43.117Z,8.80
2019-02-16T20:27:48.034Z,8.90
2019-02-16T20:32:48.074Z,8.80
2019-02-16T20:37:46.900Z,8.70
2019-02-16T20:42:57.957Z,8.70
2019-02-16T20:47:59.527Z,8.60
2019-02-16T20:53:11.033Z,8.50
2019-02-16T20:58:38.819Z,8.50
2019-02-16T21:03:51.330Z,8.40
2019-02-16T21:08:55.081Z,8.20
2019-02-16T21:13:55.611Z,8.20
2019-02-16T21:19:13.914Z,8.20
2019-02-16T21:24:26.402Z,8.10
2019-02-16T21:29:36.676Z,8.00
2019-02-16T21:34:48.885Z,8.00
2019-02-16T21:39:47.388Z,7.90
2019-02-16T21:44:58.800Z,7.70
2019-02-16T21:50:09.877Z,7.60
2019-02-16T21:55:08.380Z,7.50
2019-02-16T22:00:21.814Z,7.40
2019-02-16T22:05:27.173Z,7.30
2019-02-16T22:10:26.595Z,7.20
2019-02-16T22:15:19.475Z,7.10
2019-02-16T22:20:12.327Z,7.10
2019-02-16T22:25:05.566Z,7.10
2019-02-16T22:29:58.474Z,7.00
2019-02-16T22:34:51.364Z,6.90
2019-02-16T22:39:44.220Z,6.90
2019-02-16T22:44:37.077Z,6.80
2019-02-16T22:49:29.963Z,6.70
2019-02-16T22:54:22.823Z,6.60
2019-02-16T22:59:15.706Z,6.50
2019-02-16T23:04:08.547Z,6.40
2019-02-16T23:09:01.625Z,6.60
2019-02-16T23:13:54.653Z,6.60
2019-02-16T23:18:47.529Z,6.60
2019-02-16T23:23:40.394Z,6.50
2019-02-16T23:28:39.048Z,6.60
2019-02-16T23:33:28.044Z,6.60
2019-02-16T23:38:20.967Z,6.50
2019-02-16T23:43:13.831Z,6.40
2019-02-16T23:48:06.685Z,6.40
2019-02-16T23:52:59.571Z,6.50
2019-02-16T23:57:52.421Z,6.40
